Time;durP1;ratioP1;P1;durP2;ratioP2;P2;SDS_P1;SDS_P2;PMS_P1;PMS_P2;Temp;Humidity;BMP_temperature;BMP_pressure;BME280_temperature;BME280_humidity;BME280_pressure;Samples;Min_cycle;Max_cycle;Signal;HPM_P1;HPM_P2
2023/10/01 00:00:23;;;;;;;8.75;4.68;;;17.10;54.90;;;;;;5027120;27;115164;-81
2023/10/01 00:02:51;;;;;;;8.15;5.40;;;17.10;55.30;;;;;;5028958;27;114254;-81
2023/10/01 00:05:22;;;;;;;7.80;4.72;;;17.00;55.40;;;;;;5029074;27;114375;-82
2023/10/01 00:07:51;;;;;;;8.07;5.18;;;17.10;55.00;;;;;;5028520;27;114961;-81
2023/10/01 00:10:19;;;;;;;12.13;5.10;;;17.10;55.80;;;;;;5046430;27;114657;-81
2023/10/01 00:12:48;;;;;;;10.05;5.22;;;17.10;54.60;;;;;;5028931;27;114309;-81
2023/10/01 00:15:17;;;;;;;8.80;5.35;;;17.10;55.20;;;;;;4996725;27;114584;-81
2023/10/01 00:17:45;;;;;;;9.55;4.60;;;17.10;55.30;;;;;;4995220;27;114842;-81
2023/10/01 00:20:35;;;;;;;8.02;4.88;;;17.10;55.60;;;;;;5046460;27;115900;-82
2023/10/01 00:23:02;;;;;;;7.35;4.60;;;17.20;55.30;;;;;;5018097;27;114329;-81
2023/10/01 00:25:30;;;;;;;8.43;4.60;;;17.20;55.40;;;;;;4996323;27;114500;-81
2023/10/01 00:27:58;;;;;;;9.18;4.82;;;17.20;55.50;;;;;;5027925;27;115368;-82
2023/10/01 00:30:31;;;;;;;9.43;5.05;;;17.20;55.50;;;;;;5046462;27;114641;-82
2023/10/01 00:33:00;;;;;;;9.75;5.15;;;17.20;55.10;;;;;;5028494;27;114464;-81
2023/10/01 00:35:27;;;;;;;8.98;4.47;;;17.20;53.70;;;;;;4995609;27;114148;-80
2023/10/01 00:37:54;;;;;;;6.70;4.45;;;17.20;54.70;;;;;;5011220;27;114910;-81
2023/10/01 00:40:22;;;;;;;8.80;4.20;;;17.20;54.30;;;;;;5028084;27;114597;-81
2023/10/01 00:42:49;;;;;;;9.57;4.85;;;17.10;52.70;;;;;;5012011;27;114426;-81
2023/10/01 00:45:16;;;;;;;8.45;4.75;;;17.10;53.80;;;;;;5029333;27;114442;-82
2023/10/01 00:47:45;;;;;;;8.88;4.72;;;17.00;54.20;;;;;;5045819;27;114921;-82
2023/10/01 00:50:15;;;;;;;9.82;4.75;;;16.90;54.20;;;;;;4994513;27;115148;-81
2023/10/01 00:52:44;;;;;;;8.35;3.90;;;16.90;54.40;;;;;;5028520;27;114388;-82
2023/10/01 00:55:13;;;;;;;7.60;3.90;;;16.90;54.50;;;;;;5012698;27;114171;-82
2023/10/01 00:57:41;;;;;;;6.63;3.60;;;16.90;55.30;;;;;;5028515;27;115299;-81
2023/10/01 01:00:14;;;;;;;9.10;4.88;;;16.90;55.50;;;;;;5028133;27;114586;-81
2023/10/01 01:02:56;;;;;;;8.45;4.25;;;17.00;54.80;;;;;;5046983;27;114069;-81
2023/10/01 01:05:34;;;;;;;7.47;4.25;;;17.00;54.20;;;;;;5028500;27;114507;-81
2023/10/01 01:08:21;;;;;;;7.75;4.05;;;17.00;54.80;;;;;;5030078;27;115036;-82
2023/10/01 01:10:50;;;;;;;8.82;4.38;;;17.00;54.80;;;;;;5011507;27;114577;-81
2023/10/01 01:13:18;;;;;;;9.07;3.97;;;17.00;54.70;;;;;;5011584;27;114239;-81
2023/10/01 01:15:51;;;;;;;7.07;3.97;;;17.00;54.70;;;;;;4995594;27;114283;-82
2023/10/01 01:18:20;;;;;;;7.90;4.18;;;17.00;54.50;;;;;;5028015;27;114869;-82
2023/10/01 01:20:49;;;;;;;7.85;4.18;;;17.00;54.60;;;;;;5011274;27;118515;-81
2023/10/01 01:23:18;;;;;;;8.63;3.97;;;17.00;54.80;;;;;;5046277;27;114231;-81
2023/10/01 01:25:46;;;;;;;7.78;4.25;;;17.10;54.90;;;;;;4994861;27;114398;-81
2023/10/01 01:28:15;;;;;;;6.78;3.40;;;17.10;54.70;;;;;;5045787;27;115666;-81
2023/10/01 01:30:43;;;;;;;6.90;3.70;;;17.20;54.80;;;;;;5046030;27;114701;-80
2023/10/01 01:33:13;;;;;;;8.15;4.25;;;17.20;54.60;;;;;;5028330;27;114509;-80
2023/10/01 01:35:43;;;;;;;7.68;3.83;;;17.20;54.10;;;;;;5046539;27;114319;-81
2023/10/01 01:38:10;;;;;;;6.80;4.18;;;17.10;54.00;;;;;;5028639;27;114901;-82
2023/10/01 01:40:40;;;;;;;6.50;3.50;;;17.10;54.30;;;;;;5015730;27;115716;-81
2023/10/01 01:43:21;;;;;;;7.45;4.05;;;17.10;54.50;;;;;;5028375;27;114036;-81
2023/10/01 01:45:54;;;;;;;7.38;3.90;;;17.10;52.90;;;;;;5019039;28;114279;-81
2023/10/01 01:48:25;;;;;;;9.02;3.53;;;17.00;53.90;;;;;;4990930;28;116788;-81
2023/10/01 01:50:58;;;;;;;6.78;3.20;;;17.00;53.90;;;;;;5006585;28;115458;-80
2023/10/01 01:53:34;;;;;;;6.10;3.33;;;17.00;54.40;;;;;;5025671;28;114255;-81
2023/10/01 01:56:14;;;;;;;7.07;3.80;;;16.90;54.20;;;;;;5007359;28;114417;-81
2023/10/01 01:58:43;;;;;;;9.20;4.00;;;16.90;53.90;;;;;;4991631;28;116168;-81
2023/10/01 02:03:46;;;;;;;7.80;3.70;;;16.80;54.50;;;;;;5025502;28;114159;-81
2023/10/01 02:06:14;;;;;;;6.43;3.20;;;16.80;54.60;;;;;;5007499;28;114323;-81
2023/10/01 02:08:49;;;;;;;6.97;3.60;;;16.80;54.70;;;;;;5023644;28;115599;-81
2023/10/01 02:11:22;;;;;;;5.28;3.05;;;16.80;54.00;;;;;;5006114;28;114599;-80
2023/10/01 02:13:55;;;;;;;6.75;3.33;;;16.90;54.40;;;;;;4990541;28;114287;-81
2023/10/01 02:19:14;;;;;;;5.88;3.30;;;16.90;54.10;;;;;;4991597;28;115170;-80
2023/10/01 02:21:49;;;;;;;9.50;3.40;;;16.90;54.40;;;;;;5023895;28;115397;-81
2023/10/01 02:24:22;;;;;;;9.02;3.88;;;16.90;53.60;;;;;;4991141;28;114494;-80
2023/10/01 02:26:59;;;;;;;7.07;3.97;;;16.80;53.30;;;;;;5008316;28;114353;-80
2023/10/01 02:29:31;;;;;;;9.15;3.08;;;16.80;53.40;;;;;;5006582;28;115007;-81
2023/10/01 02:32:04;;;;;;;6.95;3.60;;;16.80;54.10;;;;;;5006832;28;114616;-81
2023/10/01 02:34:32;;;;;;;6.97;3.55;;;16.70;53.30;;;;;;5024088;28;114184;-81
2023/10/01 02:37:06;;;;;;;7.22;3.25;;;16.80;54.00;;;;;;5006817;28;114250;-80
2023/10/01 02:39:37;;;;;;;6.35;3.72;;;16.80;54.10;;;;;;5005637;28;115105;-81
2023/10/01 02:44:39;;;;;;;7.57;3.20;;;16.80;53.60;;;;;;5024604;28;114440;-81
2023/10/01 02:47:16;;;;;;;6.82;3.70;;;16.90;53.80;;;;;;5005646;28;114375;-80
2023/10/01 02:49:49;;;;;;;9.63;4.43;;;16.90;53.10;;;;;;5023675;28;114903;-80
2023/10/01 02:52:26;;;;;;;8.55;3.50;;;16.90;52.70;;;;;;5007032;28;114672;-81
2023/10/01 02:54:54;;;;;;;8.25;3.30;;;16.90;53.00;;;;;;5024377;28;114275;-81
2023/10/01 02:57:25;;;;;;;9.07;3.63;;;16.80;53.70;;;;;;5006589;28;114518;-80
2023/10/01 03:02:41;;;;;;;7.03;3.38;;;16.80;53.80;;;;;;5008438;28;115192;-82
2023/10/01 03:05:18;;;;;;;8.27;3.67;;;16.80;54.10;;;;;;5006582;28;114104;-81
2023/10/01 03:07:50;;;;;;;7.55;3.53;;;16.90;53.50;;;;;;4989383;28;114173;-82
2023/10/01 03:10:25;;;;;;;8.23;3.38;;;16.90;53.80;;;;;;5006242;28;115209;-81
2023/10/01 03:12:57;;;;;;;7.97;3.60;;;16.90;53.60;;;;;;5005722;28;114545;-82
2023/10/01 03:15:27;;;;;;;6.10;3.38;;;16.90;53.40;;;;;;5005320;28;114349;-82
2023/10/01 03:18:05;;;;;;;6.63;3.53;;;16.90;53.70;;;;;;4990650;28;114228;-81
2023/10/01 03:23:11;;;;;;;7.47;3.30;;;17.00;53.50;;;;;;4990922;28;114405;-82
2023/10/01 03:25:42;;;;;;;7.80;3.45;;;17.00;53.60;;;;;;5008494;28;114418;-81
2023/10/01 03:28:25;;;;;;;8.23;4.28;;;16.90;53.40;;;;;;4991211;28;114351;-82
2023/10/01 03:31:01;;;;;;;7.28;3.65;;;16.90;52.00;;;;;;4991128;28;115029;-82
2023/10/01 03:33:30;;;;;;;6.63;3.08;;;16.80;53.10;;;;;;5007110;28;114631;-82
2023/10/01 03:35:57;;;;;;;8.00;3.78;;;16.70;53.80;;;;;;5023108;28;114177;-82
2023/10/01 03:38:24;;;;;;;7.30;3.75;;;16.80;53.70;;;;;;5006262;28;114224;-82
2023/10/01 03:41:00;;;;;;;6.55;3.30;;;16.70;53.80;;;;;;5005605;28;114914;-82
2023/10/01 03:43:35;;;;;;;5.72;3.20;;;16.80;53.90;;;;;;5007783;28;115021;-82
2023/10/01 03:46:19;;;;;;;7.75;3.70;;;16.80;53.70;;;;;;5024143;28;114508;-81
2023/10/01 03:49:00;;;;;;;9.23;3.70;;;16.80;53.60;;;;;;5008079;28;114158;-82
2023/10/01 03:51:52;;;;;;;7.47;3.55;;;16.80;53.20;;;;;;5022427;28;114883;-82
2023/10/01 03:54:19;;;;;;;6.10;3.45;;;16.80;53.60;;;;;;5022194;28;114580;-81
2023/10/01 03:57:11;;;;;;;7.05;3.22;;;16.80;53.60;;;;;;5023644;28;114302;-82
2023/10/01 03:59:34;;;;;;;6.25;3.72;;;16.80;53.70;;;;;;5023329;28;114381;-82
2023/10/01 04:02:02;;;;;;;8.45;3.55;;;16.80;53.10;;;;;;4988198;28;118138;-81
2023/10/01 04:04:31;;;;;;;10.18;3.58;;;16.90;52.80;;;;;;5023041;28;114754;-82
2023/10/01 04:07:00;;;;;;;8.32;4.38;;;16.90;53.10;;;;;;4989415;28;114185;-81
2023/10/01 04:09:27;;;;;;;7.95;3.05;;;16.80;52.30;;;;;;4989998;28;114317;-82
2023/10/01 04:12:18;;;;;;;7.80;3.38;;;16.80;53.30;;;;;;4971742;28;115092;-82
2023/10/01 04:14:48;;;;;;;8.48;3.63;;;16.80;53.30;;;;;;5007743;28;114584;-81
2023/10/01 04:17:19;;;;;;;9.45;3.70;;;16.80;53.40;;;;;;4988506;28;114513;-81
2023/10/01 04:19:49;;;;;;;6.95;3.10;;;16.80;53.50;;;;;;5023107;28;114615;-82
2023/10/01 04:22:21;;;;;;;6.82;3.08;;;16.80;53.10;;;;;;5022631;28;114376;-81
2023/10/01 04:25:01;;;;;;;8.20;3.40;;;16.90;53.30;;;;;;5005563;28;114803;-82
2023/10/01 04:27:34;;;;;;;7.07;3.53;;;16.90;53.30;;;;;;5007380;28;114169;-82
2023/10/01 04:30:07;;;;;;;9.10;3.67;;;16.90;53.10;;;;;;5005111;28;115141;-82
2023/10/01 04:32:36;;;;;;;7.00;3.80;;;16.80;53.20;;;;;;5022072;28;116058;-82
2023/10/01 04:35:16;;;;;;;6.95;3.70;;;16.80;52.80;;;;;;5004418;28;115488;-81
2023/10/01 04:37:48;;;;;;;7.45;3.60;;;16.80;52.80;;;;;;4990034;28;114284;-81
2023/10/01 04:40:39;;;;;;;8.73;3.65;;;16.80;52.50;;;;;;5023037;28;114376;-81
2023/10/01 04:43:10;;;;;;;8.13;3.30;;;16.80;53.00;;;;;;5004044;28;115094;-80
2023/10/01 04:45:40;;;;;;;7.88;3.30;;;16.70;53.40;;;;;;5005792;28;114647;-82
2023/10/01 04:48:24;;;;;;;7.85;3.58;;;16.80;53.10;;;;;;5026419;28;114319;-82
2023/10/01 04:50:55;;;;;;;7.15;3.03;;;16.80;53.10;;;;;;4991687;28;114463;-81
2023/10/01 04:53:22;;;;;;;7.57;3.40;;;16.80;53.50;;;;;;4974937;28;115828;-81
2023/10/01 04:56:10;;;;;;;6.35;3.63;;;16.80;53.10;;;;;;5007595;28;114543;-81
2023/10/01 04:58:38;;;;;;;7.70;3.30;;;16.90;53.40;;;;;;5011494;28;114271;-82
2023/10/01 05:01:11;;;;;;;6.78;3.15;;;16.90;53.10;;;;;;5026366;28;114265;-80
2023/10/01 05:03:39;;;;;;;9.25;3.33;;;16.90;53.10;;;;;;5025482;28;115050;-81
2023/10/01 05:06:08;;;;;;;7.95;3.72;;;16.90;53.10;;;;;;5025241;28;114636;-81
2023/10/01 05:08:38;;;;;;;6.88;3.30;;;16.90;53.30;;;;;;5008082;28;114556;-81
2023/10/01 05:11:11;;;;;;;7.25;3.55;;;16.90;53.30;;;;;;4991957;28;114671;-81
2023/10/01 05:13:42;;;;;;;7.50;3.50;;;16.90;53.10;;;;;;5007428;28;115114;-80
2023/10/01 05:16:13;;;;;;;13.35;4.35;;;16.90;53.00;;;;;;5007478;28;114562;-81
2023/10/01 05:18:48;;;;;;;6.45;2.97;;;16.90;51.90;;;;;;4990784;28;114432;-81
2023/10/01 05:21:18;;;;;;;9.25;4.63;;;16.90;53.00;;;;;;5007826;28;114230;-81
2023/10/01 05:23:47;;;;;;;6.30;3.17;;;16.90;52.70;;;;;;5007492;28;115490;-82
2023/10/01 05:26:20;;;;;;;7.88;3.65;;;16.90;53.00;;;;;;5025579;28;114576;-81
2023/10/01 05:28:48;;;;;;;8.30;3.85;;;16.90;52.80;;;;;;5025925;28;114143;-81
2023/10/01 05:31:21;;;;;;;6.70;3.53;;;16.80;52.70;;;;;;5007669;28;114767;-82
2023/10/01 05:33:51;;;;;;;8.67;3.73;;;16.80;53.10;;;;;;4991113;28;115255;-81
2023/10/01 05:36:19;;;;;;;8.98;3.53;;;16.80;53.20;;;;;;4992442;28;115055;-82
2023/10/01 05:38:46;;;;;;;7.45;3.50;;;16.90;53.40;;;;;;5008367;28;114128;-81
2023/10/01 05:41:13;;;;;;;7.65;3.60;;;16.90;53.10;;;;;;5008276;28;114567;-81
2023/10/01 05:43:43;;;;;;;7.47;3.60;;;16.90;53.20;;;;;;4991035;28;114928;-81
2023/10/01 05:46:10;;;;;;;7.22;3.45;;;16.90;53.40;;;;;;5007840;28;114647;-81
2023/10/01 05:48:39;;;;;;;6.43;3.10;;;16.90;53.30;;;;;;5025620;28;114276;-81
2023/10/01 05:51:11;;;;;;;7.03;3.30;;;17.00;53.20;;;;;;5026058;28;114086;-81
2023/10/01 05:53:40;;;;;;;8.60;3.95;;;17.00;52.80;;;;;;5024754;28;115514;-81
2023/10/01 05:56:10;;;;;;;9.50;4.18;;;17.00;53.00;;;;;;5024516;28;115154;-81
2023/10/01 05:58:40;;;;;;;10.10;3.97;;;17.00;52.90;;;;;;5006733;28;114295;-81
2023/10/01 06:01:16;;;;;;;9.30;4.07;;;17.00;52.70;;;;;;5025222;28;114064;-82
2023/10/01 06:03:48;;;;;;;8.63;3.72;;;16.90;52.50;;;;;;5024405;28;114878;-81
2023/10/01 06:06:25;;;;;;;7.85;3.40;;;17.00;52.90;;;;;;5024466;28;114809;-81
2023/10/01 06:09:00;;;;;;;10.45;4.75;;;17.00;52.80;;;;;;5007102;28;114193;-80
2023/10/01 06:11:38;;;;;;;9.60;4.32;;;17.00;52.90;;;;;;4991921;28;114350;-82
2023/10/01 06:14:06;;;;;;;8.55;3.63;;;17.00;52.70;;;;;;5024206;28;114868;-82
2023/10/01 06:16:39;;;;;;;8.38;4.20;;;17.00;53.00;;;;;;5006906;28;115262;-82
2023/10/01 06:19:11;;;;;;;6.57;4.13;;;17.00;52.80;;;;;;5007787;28;114249;-82
2023/10/01 06:21:39;;;;;;;8.25;3.60;;;17.00;52.80;;;;;;4991715;28;114368;-82
2023/10/01 06:24:10;;;;;;;8.45;3.83;;;17.10;53.10;;;;;;5023790;28;115614;-81
2023/10/01 06:26:45;;;;;;;6.90;3.72;;;17.10;52.70;;;;;;5007022;28;114650;-81
2023/10/01 06:29:13;;;;;;;8.55;3.22;;;17.10;52.80;;;;;;5024832;28;114231;-81
2023/10/01 06:31:48;;;;;;;10.27;3.70;;;17.10;53.00;;;;;;5024379;28;114542;-82
2023/10/01 06:34:21;;;;;;;7.05;3.33;;;17.10;52.70;;;;;;5007264;28;115059;-81
2023/10/01 06:36:58;;;;;;;9.52;4.35;;;17.10;52.90;;;;;;5023953;28;115303;-82
2023/10/01 06:39:30;;;;;;;6.88;3.42;;;17.10;52.70;;;;;;5007788;28;114125;-80
2023/10/01 06:44:45;;;;;;;6.60;3.45;;;17.00;53.10;;;;;;5008514;28;114985;-81
2023/10/01 06:47:15;;;;;;;7.22;3.60;;;17.00;53.00;;;;;;4989592;28;117309;-82
2023/10/01 06:49:59;;;;;;;7.05;3.85;;;17.00;53.20;;;;;;5005877;28;114245;-82
2023/10/01 06:52:28;;;;;;;7.15;4.25;;;17.10;53.30;;;;;;5008675;28;114138;-81
2023/10/01 06:55:01;;;;;;;11.50;4.57;;;17.00;53.00;;;;;;5007888;28;116073;-81
2023/10/01 06:57:33;;;;;;;10.43;4.03;;;17.10;52.70;;;;;;5023009;28;114736;-81
2023/10/01 07:00:01;;;;;;;6.85;4.00;;;17.00;53.10;;;;;;5006458;28;114425;-81
2023/10/01 07:02:28;;;;;;;9.82;3.92;;;17.00;53.30;;;;;;5005560;28;114637;-82
2023/10/01 07:04:58;;;;;;;7.45;3.70;;;17.00;53.40;;;;;;4987939;28;117953;-81
2023/10/01 07:07:28;;;;;;;8.98;3.58;;;17.00;53.30;;;;;;5007002;28;114551;-82
2023/10/01 07:09:56;;;;;;;8.88;4.68;;;17.00;53.30;;;;;;5005371;28;114131;-81
2023/10/01 07:12:24;;;;;;;11.50;5.65;;;17.20;53.10;;;;;;4989276;28;114502;-81
2023/10/01 07:14:52;;;;;;;9.18;4.15;;;17.20;53.10;;;;;;5004604;28;115556;-82
2023/10/01 07:17:23;;;;;;;10.23;4.35;;;17.20;53.30;;;;;;5005478;28;115315;-81
2023/10/01 07:20:00;;;;;;;7.95;3.78;;;17.20;53.00;;;;;;4986347;28;114475;-82
2023/10/01 07:22:32;;;;;;;6.97;3.53;;;17.20;53.20;;;;;;5002638;28;114262;-81
2023/10/01 07:24:59;;;;;;;9.00;4.28;;;17.20;53.20;;;;;;5003160;28;114894;-81
2023/10/01 07:27:27;;;;;;;9.43;4.15;;;17.20;53.20;;;;;;5001638;28;115787;-81
2023/10/01 07:29:56;;;;;;;10.40;4.53;;;17.30;53.20;;;;;;5002499;28;114169;-81
2023/10/01 07:32:24;;;;;;;11.23;4.47;;;17.30;53.20;;;;;;4986502;28;115202;-82
2023/10/01 07:34:58;;;;;;;8.48;4.50;;;17.30;53.10;;;;;;5003031;28;114975;-81
2023/10/01 07:37:26;;;;;;;10.45;5.45;;;17.40;53.00;;;;;;5002489;28;114656;-80
2023/10/01 07:40:08;;;;;;;10.20;5.20;;;17.40;52.90;;;;;;5002118;28;115132;-82
2023/10/01 07:42:46;;;;;;;11.38;6.05;;;17.40;52.80;;;;;;5002584;28;114377;-82
2023/10/01 07:45:17;;;;;;;8.43;4.55;;;17.40;52.90;;;;;;5002912;28;114928;-79
2023/10/01 07:47:45;;;;;;;9.38;5.20;;;17.40;53.00;;;;;;5003752;28;114639;-81
2023/10/01 07:50:16;;;;;;;13.63;6.72;;;17.50;52.90;;;;;;5002106;28;114340;-81
2023/10/01 07:52:44;;;;;;;10.02;5.20;;;17.50;52.80;;;;;;5002309;28;114354;-80
2023/10/01 07:55:29;;;;;;;8.15;4.93;;;17.40;52.90;;;;;;5001753;28;115043;-82
2023/10/01 07:58:23;;;;;;;12.85;5.95;;;17.50;52.90;;;;;;4985188;28;117660;-82
2023/10/01 08:01:19;;;;;;;11.90;5.60;;;17.30;53.00;;;;;;5003043;28;114181;-81
2023/10/01 08:03:55;;;;;;;13.77;5.63;;;17.30;53.10;;;;;;5003494;28;114236;-80
2023/10/01 08:06:30;;;;;;;11.70;5.50;;;17.30;53.20;;;;;;4986824;28;116290;-82
2023/10/01 08:09:00;;;;;;;;;;;17.50;53.20;;;;;;4986406;28;114215;-82
2023/10/01 08:14:16;;;;;;;7.75;4.82;;;17.50;53.30;;;;;;5003248;28;114153;-81
2023/10/01 08:16:49;;;;;;;9.98;5.22;;;17.60;53.00;;;;;;4984388;28;118138;-81
2023/10/01 08:19:20;;;;;;;11.13;6.03;;;17.70;52.80;;;;;;5000849;28;115311;-81
2023/10/01 08:21:51;;;;;;;12.82;6.70;;;17.70;52.80;;;;;;5005441;28;114294;-81
2023/10/01 08:24:19;;;;;;;13.10;6.30;;;17.80;52.70;;;;;;5007026;28;114135;-82
2023/10/01 08:26:57;;;;;;;13.63;6.47;;;17.80;52.60;;;;;;4971050;28;119397;-82
2023/10/01 08:29:28;;;;;;;10.45;5.63;;;17.80;52.50;;;;;;5004435;28;114581;-81
2023/10/01 08:34:23;;;;;;;11.77;6.63;;;17.90;52.40;;;;;;4988982;28;114191;-81
2023/10/01 08:36:57;;;;;;;13.07;6.47;;;17.80;52.40;;;;;;5004304;28;115362;-82
2023/10/01 08:39:34;;;;;;;12.32;6.07;;;17.90;52.60;;;;;;5004323;28;114660;-81
2023/10/01 08:42:12;;;;;;;10.38;6.18;;;17.90;52.40;;;;;;5008153;28;114408;-80
2023/10/01 08:44:46;;;;;;;11.93;6.85;;;17.90;52.50;;;;;;4990148;28;114302;-81
2023/10/01 08:53:10;;;;;;;11.63;7.20;;;17.90;52.60;;;;;;5006355;28;114069;-82
2023/10/01 08:58:15;;;;;;;15.98;7.72;;;18.00;52.80;;;;;;4988226;28;116387;-81
2023/10/01 09:00:48;;;;;;;13.13;7.22;;;18.20;52.70;;;;;;4987723;28;114677;-81
2023/10/01 09:03:26;;;;;;;13.57;7.57;;;18.20;52.30;;;;;;5004723;28;114334;-81
2023/10/01 09:06:04;;;;;;;15.35;8.05;;;18.30;52.10;;;;;;5005069;28;114150;-81
2023/10/01 09:08:42;;;;;;;15.40;8.23;;;18.30;52.10;;;;;;5005444;28;114901;-81
2023/10/01 09:11:14;;;;;;;12.15;7.82;;;18.40;52.00;;;;;;5005375;28;114668;-80
2023/10/01 09:13:58;;;;;;;12.98;7.85;;;18.40;51.90;;;;;;5005660;28;114179;-81
2023/10/01 09:16:31;;;;;;;13.38;6.18;;;18.50;51.70;;;;;;5006159;28;114222;-82
2023/10/01 09:19:29;;;;;;;11.65;6.40;;;18.60;51.80;;;;;;5015832;28;115001;-81
2023/10/01 09:21:56;;;;;;;11.65;5.22;;;18.60;51.80;;;;;;5024530;28;114864;-80
2023/10/01 09:24:39;;;;;;;12.88;5.93;;;18.70;51.80;;;;;;5007579;28;114365;-80
2023/10/01 09:27:19;;;;;;;11.73;6.37;;;18.60;51.40;;;;;;5007220;28;114351;-81
2023/10/01 09:29:57;;;;;;;14.82;7.85;;;18.50;52.00;;;;;;5024937;28;115084;-81
2023/10/01 09:32:52;;;;;;;12.02;6.07;;;18.50;51.50;;;;;;5024034;27;114152;-79
2023/10/01 09:35:38;;;;;;;11.23;7.25;;;18.70;51.90;;;;;;5025085;28;114299;-82
2023/10/01 09:38:13;;;;;;;13.30;7.03;;;18.70;51.50;;;;;;5010418;28;114305;-82
2023/10/01 09:40:42;;;;;;;13.10;7.43;;;18.80;51.20;;;;;;4990381;28;115008;-82
2023/10/01 09:43:19;;;;;;;12.75;5.88;;;18.90;51.00;;;;;;5007407;28;114562;-82
2023/10/01 09:45:51;;;;;;;13.63;8.30;;;18.90;51.40;;;;;;4976933;28;114368;-82
2023/10/01 09:48:30;;;;;;;10.20;4.50;;;18.90;50.80;;;;;;5025308;28;114184;-81
2023/10/01 09:51:08;;;;;;;13.32;5.47;;;18.90;51.00;;;;;;4990292;28;117479;-80
2023/10/01 09:53:53;;;;;;;12.13;7.60;;;18.90;50.90;;;;;;5024247;28;116037;-80
2023/10/01 09:56:46;;;;;;;9.50;3.83;;;19.00;50.60;;;;;;5007453;28;114285;-81
2023/10/01 09:59:15;;;;;;;10.32;6.45;;;19.00;50.10;;;;;;5025279;28;114250;-80
2023/10/01 10:01:43;;;;;;;11.43;6.32;;;19.10;50.10;;;;;;5006586;28;114985;-80
2023/10/01 10:04:10;;;;;;;12.00;7.93;;;19.20;49.80;;;;;;5024291;28;114647;-80
2023/10/01 10:06:41;;;;;;;12.10;6.97;;;19.20;49.90;;;;;;5025099;28;114265;-81
2023/10/01 10:09:25;;;;;;;9.60;5.00;;;19.30;49.60;;;;;;5025194;28;114336;-82
2023/10/01 10:11:52;;;;;;;10.37;3.93;;;19.30;49.10;;;;;;5006280;28;114963;-82
2023/10/01 10:14:28;;;;;;;13.13;5.38;;;19.30;48.60;;;;;;5006619;28;114726;-82
2023/10/01 10:16:57;;;;;;;11.30;5.68;;;19.30;48.90;;;;;;5006500;28;114207;-82
2023/10/01 10:19:25;;;;;;;10.70;4.38;;;19.30;49.00;;;;;;5024341;28;114436;-82
2023/10/01 10:24:33;;;;;;;14.27;8.27;;;19.30;48.60;;;;;;5005953;28;115891;-82
2023/10/01 10:27:07;;;;;;;13.60;6.88;;;19.40;49.10;;;;;;4991726;28;114140;-82
2023/10/01 10:29:47;;;;;;;10.57;4.57;;;19.40;48.90;;;;;;5007185;28;114275;-81
2023/10/01 10:32:24;;;;;;;9.18;4.72;;;19.30;48.50;;;;;;5024098;28;116114;-81
2023/10/01 10:35:04;;;;;;;12.32;6.60;;;19.30;48.80;;;;;;5006034;28;115388;-81
2023/10/01 10:37:36;;;;;;;11.52;6.40;;;19.30;48.60;;;;;;5006497;28;114485;-82
2023/10/01 10:40:12;;;;;;;10.05;5.28;;;19.30;48.60;;;;;;5024643;28;114640;-81
2023/10/01 10:42:46;;;;;;;12.40;6.63;;;19.30;48.40;;;;;;4973219;28;115209;-82
2023/10/01 10:45:21;;;;;;;13.52;6.95;;;19.30;48.70;;;;;;5005598;28;115240;-81
2023/10/01 10:47:59;;;;;;;15.05;5.38;;;19.30;48.00;;;;;;5024468;28;114327;-81
2023/10/01 10:50:45;;;;;;;9.95;4.20;;;19.30;47.90;;;;;;5024454;28;114157;-82
2023/10/01 10:53:25;;;;;;;11.57;5.07;;;19.30;47.90;;;;;;5023480;28;116256;-82
2023/10/01 10:56:02;;;;;;;10.40;5.93;;;19.30;48.20;;;;;;5023368;28;114613;-82
2023/10/01 10:58:39;;;;;;;10.00;3.85;;;19.20;48.80;;;;;;5006259;28;114270;-81
2023/10/01 11:01:18;;;;;;;15.48;8.23;;;19.20;48.20;;;;;;5007622;28;114376;-81
2023/10/01 11:03:56;;;;;;;11.85;4.68;;;19.20;49.00;;;;;;5007226;28;114858;-81
2023/10/01 11:06:29;;;;;;;9.68;4.30;;;19.20;48.60;;;;;;5005778;28;114677;-80
2023/10/01 11:09:03;;;;;;;11.53;6.17;;;19.20;47.90;;;;;;5023731;28;114278;-83
2023/10/01 11:11:39;;;;;;;10.88;5.60;;;19.20;48.40;;;;;;5007408;28;114362;-81
2023/10/01 11:14:16;;;;;;;10.38;5.70;;;19.20;48.10;;;;;;5008373;28;115547;-81
2023/10/01 11:16:48;;;;;;;9.40;4.43;;;19.10;48.30;;;;;;5023055;28;115032;-81
2023/10/01 11:19:17;;;;;;;11.48;7.40;;;19.20;47.90;;;;;;5005917;28;114285;-81
2023/10/01 11:22:00;;;;;;;13.20;4.78;;;19.20;48.80;;;;;;5023971;28;114150;-83
2023/10/01 11:24:30;;;;;;;8.70;5.18;;;19.30;48.20;;;;;;5005295;28;115116;-81
2023/10/01 11:27:18;;;;;;;11.45;5.88;;;19.30;48.40;;;;;;4987624;28;116543;-81
2023/10/01 11:29:59;;;;;;;8.95;4.68;;;19.30;48.40;;;;;;5023750;28;114115;-82
2023/10/01 11:35:59;;;;;;;9.20;4.78;;;19.40;47.60;;;;;;5022179;28;114891;-81
2023/10/01 11:38:28;;;;;;;10.20;5.47;;;19.30;46.80;;;;;;5022914;28;115311;-82
2023/10/01 11:41:12;;;;;;;8.45;3.72;;;19.30;47.60;;;;;;4988776;28;114612;-81
2023/10/01 11:43:43;;;;;;;9.27;6.15;;;19.40;46.70;;;;;;5023572;28;114371;-82
2023/10/01 11:46:19;;;;;;;10.07;6.30;;;19.50;47.70;;;;;;5004654;28;116785;-81
2023/10/01 11:49:06;;;;;;;11.27;6.07;;;19.60;47.40;;;;;;5004868;28;114721;-81
2023/10/01 11:54:45;;;;;;;11.63;5.57;;;19.70;46.20;;;;;;5023983;28;114196;-82
2023/10/01 11:57:25;;;;;;;11.48;5.35;;;19.80;46.50;;;;;;5010282;28;114872;-82
2023/10/01 11:59:56;;;;;;;10.30;4.53;;;19.70;46.80;;;;;;5010371;28;114573;-82
2023/10/01 12:02:27;;;;;;;11.63;6.50;;;19.70;45.60;;;;;;4992700;28;114473;-82
2023/10/01 12:04:58;;;;;;;7.03;3.38;;;19.80;46.70;;;;;;5027498;28;114391;-81
2023/10/01 12:07:32;;;;;;;10.10;3.40;;;19.80;45.60;;;;;;5010405;28;114882;-82
2023/10/01 12:10:04;;;;;;;;;;;19.80;45.70;;;;;;5009470;28;114649;-82
2023/10/01 12:12:40;;;;;;;10.23;4.13;;;19.70;46.90;;;;;;5012884;28;114463;-81
2023/10/01 12:17:54;;;;;;;6.30;2.63;;;19.70;44.90;;;;;;5010962;28;115298;-81
2023/10/01 12:20:28;;;;;;;8.50;4.60;;;19.80;44.60;;;;;;5026344;28;115578;-81
2023/10/01 12:23:11;;;;;;;7.57;4.47;;;19.70;45.10;;;;;;5010216;28;114221;-80
2023/10/01 12:25:44;;;;;;;8.95;4.25;;;19.70;46.40;;;;;;5011121;28;114260;-81
2023/10/01 12:28:24;;;;;;;9.65;5.20;;;19.70;45.60;;;;;;5025022;28;116859;-81
2023/10/01 12:30:57;;;;;;;10.15;4.75;;;19.70;45.70;;;;;;5025488;28;115244;-81
2023/10/01 12:33:38;;;;;;;8.85;3.00;;;19.60;46.10;;;;;;4992843;28;114436;-80
2023/10/01 12:36:11;;;;;;;8.18;5.50;;;19.70;44.00;;;;;;5026529;28;114231;-81
2023/10/01 12:38:39;;;;;;;8.65;4.57;;;19.70;46.40;;;;;;4959589;28;118041;-82
2023/10/01 12:41:06;;;;;;;7.50;3.55;;;19.70;45.70;;;;;;5025740;28;114665;-81
2023/10/01 12:43:42;;;;;;;7.05;2.85;;;19.80;45.10;;;;;;5026601;28;114089;-84
2023/10/01 12:46:10;;;;;;;8.77;3.10;;;19.80;44.50;;;;;;5026954;28;114236;-81
2023/10/01 12:48:39;;;;;;;7.75;3.03;;;19.70;44.60;;;;;;5008008;28;115224;-81
2023/10/01 12:51:10;;;;;;;8.10;3.45;;;19.80;44.50;;;;;;5025607;28;114590;-82
2023/10/01 12:53:49;;;;;;;7.75;4.25;;;19.80;44.60;;;;;;5007861;28;114526;-81
2023/10/01 12:56:43;;;;;;;9.80;4.38;;;19.80;46.00;;;;;;4991403;28;114387;-81
2023/10/01 12:59:19;;;;;;;9.00;4.15;;;19.80;45.50;;;;;;5011442;28;114965;-81
2023/10/01 13:01:53;;;;;;;9.88;3.72;;;19.80;44.70;;;;;;5007403;28;114818;-81
2023/10/01 13:04:25;;;;;;;7.43;3.45;;;19.90;44.90;;;;;;5026036;28;114241;-81
2023/10/01 13:07:01;;;;;;;8.05;4.40;;;19.90;44.20;;;;;;5007971;28;114243;-83
2023/10/01 13:10:05;;;;;;;9.13;2.75;;;19.90;44.50;;;;;;4989374;28;117257;-81
2023/10/01 13:12:25;;;;;;;6.97;3.05;;;19.80;43.30;;;;;;5038636;27;114684;-84
2023/10/01 13:17:43;;;;;;;7.85;3.35;;;19.80;44.60;;;;;;5026719;27;114424;-82
2023/10/01 13:20:27;;;;;;;6.93;3.38;;;19.70;44.30;;;;;;4987079;28;116599;-81
2023/10/01 13:23:06;;;;;;;9.75;2.97;;;19.70;44.40;;;;;;5005223;28;114605;-80
2023/10/01 13:25:37;;;;;;;9.07;3.50;;;19.70;44.10;;;;;;5004921;28;114238;-80
2023/10/01 13:28:04;;;;;;;6.95;3.63;;;19.70;45.10;;;;;;5002311;28;114477;-80
2023/10/01 13:31:03;;;;;;;10.10;3.70;;;19.80;45.00;;;;;;5005391;28;118048;-81
2023/10/01 13:33:20;;;;;;;11.13;3.83;;;19.80;44.90;;;;;;5003284;28;114648;-82
2023/10/01 13:35:50;;;;;;;6.05;2.58;;;19.80;44.40;;;;;;4986049;28;114873;-83
2023/10/01 14:08:43;;;;;;;8.20;3.05;;;19.50;44.60;;;;;;5024147;28;115144;-83
2023/10/01 14:11:26;;;;;;;5.55;3.45;;;19.50;43.60;;;;;;5023768;28;115062;-82
2023/10/01 14:13:54;;;;;;;9.10;3.50;;;19.40;45.40;;;;;;5024090;28;115165;-81
2023/10/01 14:16:24;;;;;;;7.95;3.65;;;19.30;44.20;;;;;;5022978;28;114572;-81
2023/10/01 14:18:55;;;;;;;6.88;3.13;;;19.30;45.50;;;;;;5023011;28;114348;-83